Annabella 1 — 9HAO8 — position and weather

sailwx.info

Track history (hours):
 
Tides and Currents Weather Stations Pressure Air Temp Water Temp Dewpoint Dewpoint Depression Visibility Wind Speed Wind Dir Waves Ship Positions

Annabella 1

Last reported at 2017-Oct-19 05:31 UTC. Time now 2017-Oct-19 05:49 UTC.
Position N 43°21' E 030°00'.

Length 122 m; draft 4.8 m.

Type: Cargo ship. MMSI: 215784000.

Date/timePositionNaut miles runAvg speedWind from/ knotsBaromVisibWave heightAir tempDewpointWater temp
2017-Oct-19 05:31N 43°21' E 030°00'510.6
2017-Oct-19 05:00N 43°15' E 029°58'510.7
2017-Oct-19 04:30N 43°10' E 029°56'510.8
2017-Oct-19 04:01N 43°05' E 029°55'611.1
2017-Oct-19 03:31N 42°60' E 029°53'611.0
2017-Oct-19 03:00N 42°54' E 029°51'510.9
2017-Oct-19 02:30N 42°49' E 029°49'510.9
2017-Oct-19 02:01N 42°44' E 029°48'510.9
2017-Oct-19 01:31N 42°38' E 029°46'610.9
2017-Oct-19 01:00N 42°33' E 029°45'611.0
2017-Oct-19 00:30N 42°27' E 029°44'510.7
2017-Oct-19 00:00N 42°22' E 029°44'4 8.1
2017-Oct-18 23:30N 42°18' E 029°44'0 0.7
2017-Oct-18 23:01N 42°18' E 029°44'0 0.7
2017-Oct-18 22:31N 42°18' E 029°45'0 0.8
2017-Oct-18 22:01N 42°18' E 029°45'0 0.7
2017-Oct-18 21:30N 42°18' E 029°46'0 0.7
2017-Oct-18 21:01N 42°18' E 029°46'0 0.7
2017-Oct-18 20:30N 42°18' E 029°47'0 0.7
2017-Oct-18 20:01N 42°18' E 029°47'0 0.7
2017-Oct-18 19:30N 42°18' E 029°48'0 0.8
2017-Oct-18 19:01N 42°18' E 029°48'0 0.7
2017-Oct-18 18:30N 42°18' E 029°49'0 0.6
2017-Oct-18 18:01N 42°18' E 029°49'0 0.6
2017-Oct-18 17:30N 42°19' E 029°50'0 0.5
2017-Oct-18 17:01N 42°19' E 029°50'0 0.4
2017-Oct-18 16:30N 42°19' E 029°50'0 0.5
2017-Oct-18 16:00N 42°19' E 029°50'0 0.4
2017-Oct-18 15:31N 42°18' E 029°51'0 0.4
2017-Oct-18 15:00N 42°18' E 029°51'0 0.3
2017-Oct-18 13:33N 42°19' E 029°52'0 0.2
2017-Oct-18 13:28N 42°19' E 029°52'0 0.2
2017-Oct-18 13:00N 42°19' E 029°52'0 0.2
2017-Oct-18 12:31N 42°19' E 029°52'0 0.2
2017-Oct-18 12:00N 42°19' E 029°52'0 0.3
2017-Oct-18 11:30N 42°19' E 029°52'0 0.2
2017-Oct-18 11:00N 42°19' E 029°52'0 0.2
2017-Oct-18 10:31N 42°19' E 029°52'0 0.7
2017-Oct-18 10:00N 42°19' E 029°51'3 5.8
2017-Oct-18 09:30N 42°17' E 029°49'612.5
2017-Oct-18 09:00N 42°12' E 029°42'612.6
2017-Oct-18 08:30N 42°08' E 029°36'612.4
2017-Oct-18 08:00N 42°03' E 029°31'1012.9
2017-Oct-18 07:15N 41°54' E 029°27'313.0
2017-Oct-18 07:00N 41°51' E 029°26'612.9
2017-Oct-18 06:31N 41°45' E 029°24'4911.1
2017-Oct-18 02:06N 40°59' E 028°60'1 6.1
2017-Oct-18 02:00N 40°59' E 028°60'3 6.1
2017-Oct-18 01:30N 40°56' E 028°58'3 5.8
2017-Oct-18 00:57N 40°57' E 028°54'0 0.0
2017-Oct-17 21:59N 40°57' E 028°54'0 0.0
2017-Oct-17 20:37N 40°57' E 028°54'0 0.7
2017-Oct-17 20:30N 40°57' E 028°54'2 4.0
2017-Oct-17 19:56N 40°57' E 028°57'510.5
2017-Oct-17 19:30N 40°53' E 029°00'611.7
2017-Oct-17 19:00N 40°49' E 029°06'611.9
2017-Oct-17 18:30N 40°47' E 029°13'611.7
2017-Oct-17 18:00N 40°45' E 029°20'510.0
2017-Oct-17 17:29N 40°45' E 029°27'3 1.5
2017-Oct-17 15:16N 40°46' E 029°31'4 0.1
2017-Oct-15 17:20N 40°44' E 029°26'3 9.2
2017-Oct-15 17:00N 40°43' E 029°22'4 8.5
2017-Oct-15 16:30N 40°45' E 029°17'510.3
2017-Oct-15 16:00N 40°47' E 029°11'510.5
2017-Oct-15 15:30N 40°49' E 029°04'510.4
2017-Oct-15 15:00N 40°51' E 028°58'440 9.5
2017-Oct-13 16:27N 44°30' E 037°36'511.0
2017-Oct-13 16:00N 44°33' E 037°42'510.5
2017-Oct-13 15:30N 44°37' E 037°48'4 8.9
2017-Oct-13 15:00N 44°41' E 037°50'3 5.9
2017-Oct-13 14:31N 44°44' E 037°48'0 0.3
2017-Oct-13 14:00N 44°44' E 037°48'0 0.0
2017-Oct-13 13:30N 44°44' E 037°48'0 0.0
2017-Oct-13 13:00N 44°44' E 037°48'0 0.0
2017-Oct-13 12:30N 44°44' E 037°48'0 0.0
2017-Oct-13 12:00N 44°44' E 037°48'0 0.0
2017-Oct-13 11:30N 44°44' E 037°48'0 0.0
2017-Oct-13 11:00N 44°44' E 037°48'0 0.0
2017-Oct-13 10:30N 44°44' E 037°48'0 0.0
2017-Oct-13 10:00N 44°44' E 037°48'0 0.0
2017-Oct-13 09:30N 44°44' E 037°48'0 0.0
2017-Oct-13 09:00N 44°44' E 037°48'0 0.0
2017-Oct-13 08:30N 44°44' E 037°48'0 0.0
2017-Oct-13 08:00N 44°44' E 037°48'0 0.0
2017-Oct-13 07:30N 44°44' E 037°48'0 0.0
2017-Oct-13 07:00N 44°44' E 037°48'0 0.0
2017-Oct-13 06:30N 44°44' E 037°48'0 0.0
2017-Oct-13 06:00N 44°44' E 037°48'0 0.0
2017-Oct-13 05:30N 44°44' E 037°48'0 0.0
2017-Oct-13 05:00N 44°44' E 037°48'0 0.0
2017-Oct-13 04:30N 44°44' E 037°48'0 0.0
2017-Oct-13 04:00N 44°44' E 037°48'0 0.0
2017-Oct-13 03:30N 44°44' E 037°48'0 0.0
2017-Oct-13 03:00N 44°44' E 037°48'0 0.0
2017-Oct-13 02:30N 44°44' E 037°48'0 0.0
2017-Oct-13 02:00N 44°44' E 037°48'0 0.0
2017-Oct-13 01:30N 44°44' E 037°48'0 0.0
2017-Oct-13 01:00N 44°44' E 037°48'0 0.0
2017-Oct-13 00:30N 44°44' E 037°48'0 0.0
2017-Oct-13 00:00N 44°44' E 037°48'0 0.0
2017-Oct-12 23:30N 44°44' E 037°48'0 0.0
2017-Oct-12 23:00N 44°44' E 037°48'0 0.0
2017-Oct-12 22:30N 44°44' E 037°48'0 0.0
2017-Oct-12 22:00N 44°44' E 037°48'0 0.0
2017-Oct-12 21:30N 44°44' E 037°48'0 0.0
2017-Oct-12 21:00N 44°44' E 037°48'0 0.0
2017-Oct-12 20:30N 44°44' E 037°48'0 0.0
2017-Oct-12 20:00N 44°44' E 037°48'0 0.0
2017-Oct-12 19:30N 44°44' E 037°48'0 0.0
2017-Oct-12 19:00N 44°44' E 037°48'0 0.0
2017-Oct-12 18:30N 44°44' E 037°48'0 0.0
2017-Oct-12 18:00N 44°44' E 037°48'0 0.0
2017-Oct-12 17:30N 44°44' E 037°48'0 0.0
2017-Oct-12 17:00N 44°44' E 037°48'0 0.0
2017-Oct-12 16:30N 44°44' E 037°48'0 0.0
2017-Oct-12 16:00N 44°44' E 037°48'0 0.0
2017-Oct-12 15:30N 44°44' E 037°48'0 0.0
2017-Oct-12 15:00N 44°44' E 037°48'0 0.0
2017-Oct-12 14:30N 44°44' E 037°48'0 0.0
2017-Oct-12 14:00N 44°44' E 037°48'0 0.0
2017-Oct-12 13:30N 44°44' E 037°48'0 0.0
2017-Oct-12 13:00N 44°44' E 037°48'0 0.0
2017-Oct-12 12:30N 44°44' E 037°48'0 0.0
2017-Oct-12 11:54N 44°44' E 037°48'0 0.0
2017-Oct-12 11:30N 44°44' E 037°48'0 0.0
2017-Oct-12 11:00N 44°44' E 037°48'0 0.0
2017-Oct-12 10:30N 44°44' E 037°48'0 0.0
2017-Oct-12 10:00N 44°44' E 037°48'0 0.0
2017-Oct-12 09:30N 44°44' E 037°48'0 0.0
2017-Oct-12 09:00N 44°44' E 037°48'0 0.0
2017-Oct-12 08:30N 44°44' E 037°48'0 0.0
2017-Oct-12 08:00N 44°44' E 037°48'0 0.0
2017-Oct-12 07:30N 44°44' E 037°48'0 0.0
2017-Oct-12 06:57N 44°44' E 037°48'0 0.0
2017-Oct-12 06:30N 44°44' E 037°48'0 0.0
2017-Oct-12 06:00N 44°44' E 037°48'0 0.0
2017-Oct-12 05:30N 44°44' E 037°48'0 0.0
2017-Oct-12 05:00N 44°44' E 037°48'0 0.0
2017-Oct-12 04:30N 44°44' E 037°48'0 0.0
2017-Oct-12 04:00N 44°44' E 037°48'0 0.0
2017-Oct-12 03:30N 44°44' E 037°48'0 0.0
2017-Oct-12 03:00N 44°44' E 037°48'0 0.0
2017-Oct-12 02:30N 44°44' E 037°48'0 0.0
2017-Oct-12 02:00N 44°44' E 037°48'0 0.0
2017-Oct-12 01:30N 44°44' E 037°48'0 0.0
2017-Oct-12 01:00N 44°44' E 037°48'0 0.0
2017-Oct-12 00:30N 44°44' E 037°48'0 0.0
2017-Oct-12 00:00N 44°44' E 037°48'0 0.0
2017-Oct-11 23:30N 44°44' E 037°48'0 0.0
2017-Oct-11 22:57N 44°44' E 037°48'0 0.0
2017-Oct-11 22:30N 44°44' E 037°48'0 0.0
2017-Oct-11 22:00N 44°44' E 037°48'0 0.0
2017-Oct-11 21:30N 44°44' E 037°48'0 0.0
2017-Oct-11 21:00N 44°44' E 037°48'0 0.0
2017-Oct-11 20:30N 44°44' E 037°48'0 0.0
2017-Oct-11 20:00N 44°44' E 037°48'0 0.0
2017-Oct-11 19:30N 44°44' E 037°48'0 0.0
2017-Oct-11 19:00N 44°44' E 037°48'1 1.2
2017-Oct-11 18:30N 44°43' E 037°48'3 5.5
2017-Oct-11 18:00N 44°41' E 037°50'5 9.9
2017-Oct-11 17:30N 44°36' E 037°52'510.7
2017-Oct-11 17:00N 44°31' E 037°48'44511.6
2017-Oct-10 02:36N 40°56' E 028°59'1 8.3
2017-Oct-10 02:30N 40°56' E 028°58'3 3.1
2017-Oct-10 01:31N 40°57' E 028°54'0 0.0
2017-Oct-09 23:25N 40°57' E 028°54'0 0.0
2017-Oct-09 09:01N 40°57' E 028°54'0 0.0
2017-Oct-09 06:45N 40°57' E 028°54'2 5.2
2017-Oct-09 06:24N 40°57' E 028°57'3 7.8
2017-Oct-09 05:58N 40°54' E 028°55'  
Track history (hours):
 
Tides and Currents Weather Stations Pressure Air Temp Water Temp Dewpoint Dewpoint Depression Visibility Wind Speed Wind Dir Waves Ship Positions

Annabella 1

Last reported at 2017-Oct-19 05:31 UTC. Time now 2017-Oct-19 05:49 UTC.
Position N 43°21' E 030°00'.

Length 122 m; draft 4.8 m.

Type: Cargo ship. MMSI: 215784000.

Date/timePositionNaut miles runAvg speedWind from/ knotsBaromVisibWave heightAir tempDewpointWater temp
2017-Oct-19 05:31N 43°21' E 030°00'510.6
2017-Oct-19 05:00N 43°15' E 029°58'510.7
2017-Oct-19 04:30N 43°10' E 029°56'510.8
2017-Oct-19 04:01N 43°05' E 029°55'611.1
2017-Oct-19 03:31N 42°60' E 029°53'611.0
2017-Oct-19 03:00N 42°54' E 029°51'510.9
2017-Oct-19 02:30N 42°49' E 029°49'510.9
2017-Oct-19 02:01N 42°44' E 029°48'510.9
2017-Oct-19 01:31N 42°38' E 029°46'610.9
2017-Oct-19 01:00N 42°33' E 029°45'611.0
2017-Oct-19 00:30N 42°27' E 029°44'510.7
2017-Oct-19 00:00N 42°22' E 029°44'4 8.1
2017-Oct-18 23:30N 42°18' E 029°44'0 0.7
2017-Oct-18 23:01N 42°18' E 029°44'0 0.7
2017-Oct-18 22:31N 42°18' E 029°45'0 0.8
2017-Oct-18 22:01N 42°18' E 029°45'0 0.7
2017-Oct-18 21:30N 42°18' E 029°46'0 0.7
2017-Oct-18 21:01N 42°18' E 029°46'0 0.7
2017-Oct-18 20:30N 42°18' E 029°47'0 0.7
2017-Oct-18 20:01N 42°18' E 029°47'0 0.7
2017-Oct-18 19:30N 42°18' E 029°48'0 0.8
2017-Oct-18 19:01N 42°18' E 029°48'0 0.7
2017-Oct-18 18:30N 42°18' E 029°49'0 0.6
2017-Oct-18 18:01N 42°18' E 029°49'0 0.6
2017-Oct-18 17:30N 42°19' E 029°50'0 0.5
2017-Oct-18 17:01N 42°19' E 029°50'0 0.4
2017-Oct-18 16:30N 42°19' E 029°50'0 0.5
2017-Oct-18 16:00N 42°19' E 029°50'0 0.4
2017-Oct-18 15:31N 42°18' E 029°51'0 0.4
2017-Oct-18 15:00N 42°18' E 029°51'0 0.3
2017-Oct-18 13:33N 42°19' E 029°52'0 0.2
2017-Oct-18 13:28N 42°19' E 029°52'0 0.2
2017-Oct-18 13:00N 42°19' E 029°52'0 0.2
2017-Oct-18 12:31N 42°19' E 029°52'0 0.2
2017-Oct-18 12:00N 42°19' E 029°52'0 0.3
2017-Oct-18 11:30N 42°19' E 029°52'0 0.2
2017-Oct-18 11:00N 42°19' E 029°52'0 0.2
2017-Oct-18 10:31N 42°19' E 029°52'0 0.7
2017-Oct-18 10:00N 42°19' E 029°51'3 5.8
2017-Oct-18 09:30N 42°17' E 029°49'612.5
2017-Oct-18 09:00N 42°12' E 029°42'612.6
2017-Oct-18 08:30N 42°08' E 029°36'612.4
2017-Oct-18 08:00N 42°03' E 029°31'1012.9
2017-Oct-18 07:15N 41°54' E 029°27'313.0
2017-Oct-18 07:00N 41°51' E 029°26'612.9
2017-Oct-18 06:31N 41°45' E 029°24'4911.1
2017-Oct-18 02:06N 40°59' E 028°60'1 6.1
2017-Oct-18 02:00N 40°59' E 028°60'3 6.1
2017-Oct-18 01:30N 40°56' E 028°58'3 5.8
2017-Oct-18 00:57N 40°57' E 028°54'0 0.0
2017-Oct-17 21:59N 40°57' E 028°54'0 0.0
2017-Oct-17 20:37N 40°57' E 028°54'0 0.7
2017-Oct-17 20:30N 40°57' E 028°54'2 4.0
2017-Oct-17 19:56N 40°57' E 028°57'510.5
2017-Oct-17 19:30N 40°53' E 029°00'611.7
2017-Oct-17 19:00N 40°49' E 029°06'611.9
2017-Oct-17 18:30N 40°47' E 029°13'611.7
2017-Oct-17 18:00N 40°45' E 029°20'510.0
2017-Oct-17 17:29N 40°45' E 029°27'3 1.5
2017-Oct-17 15:16N 40°46' E 029°31'4 0.1
2017-Oct-15 17:20N 40°44' E 029°26'3 9.2
2017-Oct-15 17:00N 40°43' E 029°22'4 8.5
2017-Oct-15 16:30N 40°45' E 029°17'510.3
2017-Oct-15 16:00N 40°47' E 029°11'510.5
2017-Oct-15 15:30N 40°49' E 029°04'510.4
2017-Oct-15 15:00N 40°51' E 028°58'440 9.5
2017-Oct-13 16:27N 44°30' E 037°36'511.0
2017-Oct-13 16:00N 44°33' E 037°42'510.5
2017-Oct-13 15:30N 44°37' E 037°48'4 8.9
2017-Oct-13 15:00N 44°41' E 037°50'3 5.9
2017-Oct-13 14:31N 44°44' E 037°48'0 0.3
2017-Oct-13 14:00N 44°44' E 037°48'0 0.0
2017-Oct-13 13:30N 44°44' E 037°48'0 0.0
2017-Oct-13 13:00N 44°44' E 037°48'0 0.0
2017-Oct-13 12:30N 44°44' E 037°48'0 0.0
2017-Oct-13 12:00N 44°44' E 037°48'0 0.0
2017-Oct-13 11:30N 44°44' E 037°48'0 0.0
2017-Oct-13 11:00N 44°44' E 037°48'0 0.0
2017-Oct-13 10:30N 44°44' E 037°48'0 0.0
2017-Oct-13 10:00N 44°44' E 037°48'0 0.0
2017-Oct-13 09:30N 44°44' E 037°48'0 0.0
2017-Oct-13 09:00N 44°44' E 037°48'0 0.0
2017-Oct-13 08:30N 44°44' E 037°48'0 0.0
2017-Oct-13 08:00N 44°44' E 037°48'0 0.0
2017-Oct-13 07:30N 44°44' E 037°48'0 0.0
2017-Oct-13 07:00N 44°44' E 037°48'0 0.0
2017-Oct-13 06:30N 44°44' E 037°48'0 0.0
2017-Oct-13 06:00N 44°44' E 037°48'0 0.0
2017-Oct-13 05:30N 44°44' E 037°48'0 0.0
2017-Oct-13 05:00N 44°44' E 037°48'0 0.0
2017-Oct-13 04:30N 44°44' E 037°48'0 0.0
2017-Oct-13 04:00N 44°44' E 037°48'0 0.0
2017-Oct-13 03:30N 44°44' E 037°48'0 0.0
2017-Oct-13 03:00N 44°44' E 037°48'0 0.0
2017-Oct-13 02:30N 44°44' E 037°48'0 0.0
2017-Oct-13 02:00N 44°44' E 037°48'0 0.0
2017-Oct-13 01:30N 44°44' E 037°48'0 0.0
2017-Oct-13 01:00N 44°44' E 037°48'0 0.0
2017-Oct-13 00:30N 44°44' E 037°48'0 0.0
2017-Oct-13 00:00N 44°44' E 037°48'0 0.0
2017-Oct-12 23:30N 44°44' E 037°48'0 0.0
2017-Oct-12 23:00N 44°44' E 037°48'0 0.0
2017-Oct-12 22:30N 44°44' E 037°48'0 0.0
2017-Oct-12 22:00N 44°44' E 037°48'0 0.0
2017-Oct-12 21:30N 44°44' E 037°48'0 0.0
2017-Oct-12 21:00N 44°44' E 037°48'0 0.0
2017-Oct-12 20:30N 44°44' E 037°48'0 0.0
2017-Oct-12 20:00N 44°44' E 037°48'0 0.0
2017-Oct-12 19:30N 44°44' E 037°48'0 0.0
2017-Oct-12 19:00N 44°44' E 037°48'0 0.0
2017-Oct-12 18:30N 44°44' E 037°48'0 0.0
2017-Oct-12 18:00N 44°44' E 037°48'0 0.0
2017-Oct-12 17:30N 44°44' E 037°48'0 0.0
2017-Oct-12 17:00N 44°44' E 037°48'0 0.0
2017-Oct-12 16:30N 44°44' E 037°48'0 0.0
2017-Oct-12 16:00N 44°44' E 037°48'0 0.0
2017-Oct-12 15:30N 44°44' E 037°48'0 0.0
2017-Oct-12 15:00N 44°44' E 037°48'0 0.0
2017-Oct-12 14:30N 44°44' E 037°48'0 0.0
2017-Oct-12 14:00N 44°44' E 037°48'0 0.0
2017-Oct-12 13:30N 44°44' E 037°48'0 0.0
2017-Oct-12 13:00N 44°44' E 037°48'0 0.0
2017-Oct-12 12:30N 44°44' E 037°48'0 0.0
2017-Oct-12 11:54N 44°44' E 037°48'0 0.0
2017-Oct-12 11:30N 44°44' E 037°48'0 0.0
2017-Oct-12 11:00N 44°44' E 037°48'0 0.0
2017-Oct-12 10:30N 44°44' E 037°48'0 0.0
2017-Oct-12 10:00N 44°44' E 037°48'0 0.0
2017-Oct-12 09:30N 44°44' E 037°48'0 0.0
2017-Oct-12 09:00N 44°44' E 037°48'0 0.0
2017-Oct-12 08:30N 44°44' E 037°48'0 0.0
2017-Oct-12 08:00N 44°44' E 037°48'0 0.0
2017-Oct-12 07:30N 44°44' E 037°48'0 0.0
2017-Oct-12 06:57N 44°44' E 037°48'0 0.0
2017-Oct-12 06:30N 44°44' E 037°48'0 0.0
2017-Oct-12 06:00N 44°44' E 037°48'0 0.0
2017-Oct-12 05:30N 44°44' E 037°48'0 0.0
2017-Oct-12 05:00N 44°44' E 037°48'0 0.0
2017-Oct-12 04:30N 44°44' E 037°48'0 0.0
2017-Oct-12 04:00N 44°44' E 037°48'0 0.0
2017-Oct-12 03:30N 44°44' E 037°48'0 0.0
2017-Oct-12 03:00N 44°44' E 037°48'0 0.0
2017-Oct-12 02:30N 44°44' E 037°48'0 0.0
2017-Oct-12 02:00N 44°44' E 037°48'0 0.0
2017-Oct-12 01:30N 44°44' E 037°48'0 0.0
2017-Oct-12 01:00N 44°44' E 037°48'0 0.0
2017-Oct-12 00:30N 44°44' E 037°48'0 0.0
2017-Oct-12 00:00N 44°44' E 037°48'0 0.0
2017-Oct-11 23:30N 44°44' E 037°48'0 0.0
2017-Oct-11 22:57N 44°44' E 037°48'0 0.0
2017-Oct-11 22:30N 44°44' E 037°48'0 0.0
2017-Oct-11 22:00N 44°44' E 037°48'0 0.0
2017-Oct-11 21:30N 44°44' E 037°48'0 0.0
2017-Oct-11 21:00N 44°44' E 037°48'0 0.0
2017-Oct-11 20:30N 44°44' E 037°48'0 0.0
2017-Oct-11 20:00N 44°44' E 037°48'0 0.0
2017-Oct-11 19:30N 44°44' E 037°48'0 0.0
2017-Oct-11 19:00N 44°44' E 037°48'1 1.2
2017-Oct-11 18:30N 44°43' E 037°48'3 5.5
2017-Oct-11 18:00N 44°41' E 037°50'5 9.9
2017-Oct-11 17:30N 44°36' E 037°52'510.7
2017-Oct-11 17:00N 44°31' E 037°48'44511.6
2017-Oct-10 02:36N 40°56' E 028°59'1 8.3
2017-Oct-10 02:30N 40°56' E 028°58'3 3.1
2017-Oct-10 01:31N 40°57' E 028°54'0 0.0
2017-Oct-09 23:25N 40°57' E 028°54'0 0.0
2017-Oct-09 09:01N 40°57' E 028°54'0 0.0
2017-Oct-09 06:45N 40°57' E 028°54'2 5.2
2017-Oct-09 06:24N 40°57' E 028°57'3 7.8
2017-Oct-09 05:58N 40°54' E 028°55'  

Dump ship's entire track history